默认 日期 大小 文件数 浏览量 最新下载 xml
21 2008磁力链接相关资源由用户搜索指令自动获取,结果来源于网络,本站不存储任何资料,亦不承担任何责任,请于24小时内删除,搜索到550个磁力,用时24ms。
    {"VTS_01_1.idx": 7041, "VTS_01_1.rmvb": 394195904}
创建时间: 2022-12-30 17:56:59 大小:375.94 MB 文件数量:2 热度:3 最近下载:2025-02-23 03:29:04
    {"[jumpcn][Code_Geass R2][03][704x396].rmvb": 24698880}
创建时间: 2022-12-30 19:34:46 大小:23.55 MB 文件数量:1 热度:3 最近下载:2025-01-19 04:05:07
    {"[�����ɶ���].A.Soldiers.Girl.(2003).DVDRiP.XViD-VH-PROD.CD1.avi": 733827072, "[�����ɶ���].A.Soldiers.Girl.(2003).DVDRiP.XViD-VH-PROD.CD1.srt": 25981, "[�����ɶ���].A.Soldiers.Girl.(2003).DVDRiP.XViD-VH-PROD.CD2.avi": 732176384, "[�����ɶ���].A.Soldiers.Girl ...
创建时间: 2023-01-01 15:50:21 大小:1.37 GB 文件数量:4 热度:2 最近下载:2025-02-22 10:15:02
    {"����Ӣ�۴�֮��Ѫ����01.rm": 222081776, "����Ӣ�۴�֮��Ѫ����02.rm": 223339945, "����Ӣ�۴�֮��Ѫ����03.rm": 225781564, "����Ӣ�۴�֮��Ѫ����04.rm": 222264323, "����Ӣ�۴�֮��Ѫ����05.rm": 217894893, "����Ӣ�۴�֮��Ѫ����06.rm": 223562607, "����Ӣ�۴�֮��Ѫ����07.rm": 224461543, "�� ...
创建时间: 2023-01-03 22:58:32 大小:3.95 GB 文件数量:19 热度:3 最近下载:2025-02-08 01:21:18
    ... �.url": 160, "IBF.2008.11.21.China.Quarter.Finals-YDY.rmvb ...
创建时间: 2023-01-04 05:16:00 大小:563.46 MB 文件数量:7 热度:6 最近下载:2025-01-15 08:58:05
创建时间: 2023-01-04 06:38:27 大小:1005.81 MB 文件数量:1 热度:2 最近下载:2025-01-18 13:29:05
    {"Science.Magazine.319-5870.-.21.Mar.2008.zip": 26761429}
创建时间: 2023-01-04 06:52:23 大小:25.52 MB 文件数量:1 热度:4 最近下载:2025-03-21 07:34:01
    {"080616������ ���ǽ������ؼ���[DoubleS һ�?�].rmvb": 466235267}
创建时间: 2023-01-04 07:51:31 大小:444.64 MB 文件数量:1 热度:3 最近下载:2025-01-18 00:15:02
    ... .rmvb": 268730368, "[QxMFL]Drillbit.Taylor.2008.cd2.rmvb": 282240285, "�� ...
创建时间: 2023-01-05 05:29:19 大小:526 MB 文件数量:7 热度:3 最近下载:2025-01-26 17:57:08
    {"[SUBPIG][Innocent Love ep01].rmvb": 287937089, "[SUBPIG][Innocent Love ep01].torrent": 23553}
创建时间: 2023-01-05 05:31:54 大小:274.62 MB 文件数量:2 热度:2 最近下载:2025-02-24 02:52:01
    {"VIDEO_TS": {"VIDEO_TS.BUP": 8192, "VIDEO_TS.IFO": 8192, "VTS_01_0.BUP": 77824, "VTS_01_0.IFO": 77824, "VTS_01_1.VOB": 1062311936, "VTS_01_2.VOB": 219654144}, "_____padding_file_0_�p�G�z�ݨ즹�����A?��?��BitComet(���S�k�P)0.85�ΥH�W����____": 516096, " ...
创建时间: 2023-01-05 18:10:00 大小:1.2 GB 文件数量:11 热度:4 最近下载:2025-02-07 09:55:08
    ... ����æ].Help-2008-03-11-YDY.rmvb": 226215724 ... ����æ].Help-2008-03-12-YDY.rmvb": 257999289 ... ����æ].Help-2008-03-13-YDY.rmvb": 353359992 ... ����æ].Help-2008-03-14-YDY.rmvb": 236491278 ...
创建时间: 2023-01-05 18:13:48 大小:1 GB 文件数量:4 热度:2 最近下载:2025-02-06 05:22:04
    {"[��ݮ֮ҹ].My.Blueberry.Nights.2007.LIMITED.DVDRip.XviD-ESPiSE.avi": 730847232, "[��ݮ֮ҹ].My.Blueberry.Nights.2007.LIMITED.DVDRip.XviD-ESPiSE.nfo": 8844}
创建时间: 2023-01-05 18:56:00 大小:697 MB 文件数量:2 热度:2 最近下载:2025-02-16 22:21:02
    {"astroboy.mov": 13309568}
创建时间: 2023-01-05 19:33:09 大小:12.69 MB 文件数量:1 热度:5 最近下载:2025-01-27 01:20:04
    {"MLB Orioles vs Yankees 21-09-2008.avi": 2837165554}
创建时间: 2023-01-05 21:39:22 大小:2.64 GB 文件数量:1 热度:3 最近下载:2025-03-23 18:58:03
    {"204": {"01.wma": 4032801, "Close.lnk": 450, "dizzy.mp3": 2178000, "����վ": 0, "�ҵĵ���": 0, "1221471854321.xls": 26112, "Internet Explorer": 0, "falling slowly.mp3": 1952480, "�����ھ�": 0, "advertising space.wma": 2276417, "360��ȫ��ʿ.lnk": 672, "360������ ...
创建时间: 2023-01-05 23:15:03 大小:24.23 MB 文件数量:67 热度:3 最近下载:2025-01-18 07:41:04
    {"cover.jpg": 168244, "01. Giant.mp3": 9225653, "09. Sunday.mp3": 10027090, "07. Happy Birthday.mp3": 7107645, "06. 아 외로워 寂寞.mp3": 8972788, "03. 에구구구 哎呀呀呀.mp3": 6924788, "05. 모닝 스타 Morning Star.mp3": 9254910, "02. 아침 먹고 땡 吃早餐.mp3": 8961294, "04. 하모니카 소 ...
创建时间: 2023-01-06 09:40:38 大小:98.51 MB 文件数量:12 热度:2 最近下载:2025-02-21 21:43:02
    {"[YYeTs][The.Shawshank.Redemption.Ф���˵ľ���][HR-HDTV.AC3][Chi_Eng][960X540][H264].avi": 2276634624}
创建时间: 2023-01-28 20:32:51 大小:2.12 GB 文件数量:1 热度:2 最近下载:2025-01-18 11:41:07
    {"Open.Season.2.2008.Blu-ray.1080p.x264.DTS.MultiAudio-MySiLU.mkv": 8202360896, "Open.Season.2.2008.Blu-ray.1080p.x264.DTS.MultiAudio-MySiLU.nfo": 3898, "Open.Season.2.2008.Blu-ray.1080p.x264.DTS.MultiAudio-MySiLU.sample.mkv": 105366495}
创建时间: 2023-02-10 23:56:11 大小:7.74 GB 文件数量:3 热度:3 最近下载:2025-08-29 17:29:03
    {"[email protected] - .txt": 0, "2008.05.21 Diamond Girl (Lila).jpg": 772486, "2008.05.21 Diamond Girl (Lila).wmv": 640234772, "QQ2013@草榴社區 - powered by phpwind.net.url": 118}
创建时间: 2023-02-11 05:36:56 大小:611.31 MB 文件数量:4 热度:3 最近下载:2025-02-23 03:12:05